Etusivu
METAR-TAF:

METAR-TAF

Lentoasemat :

Mason Jewett Field

Mason, Michigan, Yhdysvallat

Leveyspiiri: 42-33-57N, Pituuspiiri: 084-25-24W, korkeus merenpinnasta: 280 m

Tämänhetkinen sää

Tämä raportti tehtiin 21 minuuttia sitten, kello 17.35 UTC
Tuuli 5 kn koillisesta
Lämpötila 19°C
Kosteus 88%
Ilmanpaine 1017 hPa
Näkyvyys: 6.4 km
Hajanaisia pilviä 900 ft:n korkeudessa
Hajanaisia pilviä 3200 ft:n korkeudessa
Pilvistä 4400 ft:n korkeudessa
sadetta

METAR: KTEW 261735Z AUTO 04005KT 4SM RA SCT009 SCT032 OVC044 19/17 A3004 RMK AO2 T01870171

Aika: 13:56 (17:56 UTC)


TAF: puuttuu

Säähavainnot ja -ennusteet yli 4000 lentoasemalta (METAR- ja TAF-raportit).

Käytössä olevat sääasemat on merkitty karttaan keltaisilla ja punaisilla pisteillä.

Aseta hiiri pisteen päälle nähdäksesi sääaseman nimen.

Klikkaa sitten nähdäksesi säähavainnot ja -ennusteet.

Kartan vaihtaminen: klikkaa mustalla rastilla varustettuja vihreitä pisteitä, niin voit zoomata sisään; viivalla varustettua vihreää pistettä, niin voit zoomata ulos tai vihreitä nuolia, niin pääset viereisille kartoille.


METAR-TAF: